EPKTEPKK

Guest
Details From EPKT - Pyrzowice
To EPKK - Balice
Flight Number -
Tags Routegen Generated
Created
Modified
Stats Distance 39 nm / 72 km
Max Altitude 100 ft / 30 m
Waypoints 5
Social Downloads 3
Likes 0
Share VATSIM

Download

Looking for another format? Having issues loading an existing format? Contact us
Advertisement - Login to hide

Notes

Departing runway 9 EPKT. Arriving runway 7 EPKK.

Route

EPKT +50.47_+019.21 +50.27_+019.43 +50.06_+019.66 EPKK

ID Type Via Altitude Latitude Longitude Leg Dist Tot Dist Heading (true) Name
O EPKT APT - 0 ft / 0 m 50.47422˚ 19.09407˚ - 0 nm - -
+50.47_+019.21 LATLON - 100 ft / 30 m 50.47389˚ 19.20777˚ 4 nm 4 nm 90° / 90° -
+50.27_+019.43 LATLON - 100 ft / 30 m 50.26696˚ 19.43285˚ 15 nm 19 nm 145° / 145° -
+50.06_+019.66 LATLON - 100 ft / 30 m 50.06002˚ 19.65793˚ 15 nm 34 nm 145° / 145° -
O EPKK APT - 0 ft / 0 m 50.07540˚ 19.76809˚ 4 nm 38 nm 78° / 78° -

Altitude Profile

Advertisement - Login to hide

EPKT

Details ICAO EPKT (KTW)
Name PYRZOWICE
Region Poland
Timezone Europe/Warsaw (UTC+2.0)
Stats Elevation 995 ft / 303 m (AMSL)
Location 50.474263° 19.074356°
Runways 1
Magnetic Variation 5.138° E

METAR

EPKT 211630Z 07014KT CAVOK 18/04 Q1019

Decode

TAF

TAF EPKT 211130Z 2112/2212 09015KT CAVOK BECMG 2119/2122 09005KT

Decode

Departure Runways

ID Width Length Bearing (true) Bearing (mag) Surface Threshold Offset Overrun Length
09 195 ft / 59 m 9,156 ft / 2,791 m 90.18° 85.04° Concrete 0 ft / 0 m 0 ft / 0 m
27 195 ft / 59 m 9,156 ft / 2,791 m 270.22° 265.08° Concrete 0 ft / 0 m 0 ft / 0 m

EPKK

Details ICAO EPKK (KRK)
Name BALICE
Region Poland
Timezone Europe/Warsaw (UTC+2.0)
Stats Elevation 791 ft / 241 m (AMSL)
Location 50.077821° 19.785503°
Runways 1
Magnetic Variation 5.255° E

METAR

EPKK 211630Z 06013KT CAVOK 18/06 Q1018

Decode

TAF

TAF EPKK 211430Z 2115/2215 05015KT CAVOK BECMG 2119/2122 05005KT

Decode

Destination Runways

ID Width Length Bearing (true) Bearing (mag) Surface Threshold Offset Overrun Length
07 197 ft / 60 m 8,343 ft / 2,543 m 77.75° 72.50° Concrete 0 ft / 0 m 0 ft / 0 m
25 197 ft / 60 m 8,343 ft / 2,543 m 257.77° 252.52° Concrete 784 ft / 239 m 0 ft / 0 m

Approach Navaids

Runway Type Ident Frequency Range Bearing (true) Bearing (mag) Slope Elevation
25 Localiser KRW 110.30 MHz 18 nm / 33 km 257.73° 252.48° - 791 ft / 241 m (AMSL)
25 Glidescope KRW 110.30 MHz 10 nm / 19 km 257.76° 252.51° 3.00° 791 ft / 241 m (AMSL)
25 DME KRW 110.30 MHz 18 nm / 33 km - - - 827 ft / 252 m (AMSL)

Popular Alternatives